Time,TemperatureF,DewpointF,PressureIn,WindDirection,WindDirectionDegrees,WindSpeedMPH,WindSpeedGustMPH,Humidity,HourlyPrecipIn,Conditions,Clouds,dailyrainin,SoftwareType,DateUTC
2013-04-18 00:02:00,37.0,36.0,-100.00,South,175,6.0,9.0,99,-99.99,,,-99.99,,2013-04-18 05:02:00,
2013-04-18 00:12:00,37.0,36.0,-100.00,South,175,6.0,9.0,99,-99.99,,,-99.99,,2013-04-18 05:12:00,
2013-04-18 00:42:00,37.0,37.0,-100.00,South,175,6.0,11.0,99,-99.99,,,-99.99,,2013-04-18 05:42:00,
2013-04-18 00:52:00,37.0,37.0,-100.00,South,175,6.0,11.0,99,-99.99,,,-99.99,,2013-04-18 05:52:00,
2013-04-18 01:02:00,37.0,37.0,-100.00,South,175,6.0,11.0,99,-99.99,,,-99.99,,2013-04-18 06:02:00,
2013-04-18 01:12:00,37.0,37.0,-100.00,South,175,6.0,11.0,99,-99.99,,,-99.99,,2013-04-18 06:12:00,
2013-04-18 01:20:00,38.0,38.0,-100.00,South,175,7.0,15.0,99,-99.99,,,-99.99,,2013-04-18 06:20:00,
2013-04-18 01:42:00,38.0,38.0,-100.00,South,175,7.0,15.0,99,-99.99,,,-99.99,,2013-04-18 06:42:00,
2013-04-18 01:52:00,38.0,38.0,-100.00,South,175,7.0,15.0,99,-99.99,,,-99.99,,2013-04-18 06:52:00,
2013-04-18 02:02:00,38.0,38.0,-100.00,South,175,7.0,15.0,99,-99.99,,,-99.99,,2013-04-18 07:02:00,
2013-04-18 02:12:00,38.0,38.0,-100.00,South,175,7.0,15.0,99,-99.99,,,-99.99,,2013-04-18 07:12:00,
2013-04-18 02:21:00,38.0,38.0,-100.00,South,175,4.0,11.0,99,-99.99,,,-99.99,,2013-04-18 07:21:00,
2013-04-18 02:42:00,38.0,38.0,-100.00,South,175,4.0,11.0,99,-99.99,,,-99.99,,2013-04-18 07:42:00,
2013-04-18 02:53:00,38.0,38.0,-100.00,South,175,4.0,11.0,99,-99.99,,,-99.99,,2013-04-18 07:53:00,
2013-04-18 03:02:00,38.0,38.0,-100.00,South,175,4.0,11.0,99,-99.99,,,-99.99,,2013-04-18 08:02:00,
2013-04-18 03:12:00,38.0,38.0,-100.00,South,175,4.0,11.0,99,-99.99,,,-99.99,,2013-04-18 08:12:00,
2013-04-18 03:42:00,38.0,38.0,-100.00,South,175,2.0,6.0,99,-99.99,,,-99.99,,2013-04-18 08:42:00,
2013-04-18 03:52:00,38.0,38.0,-100.00,South,175,2.0,6.0,99,-99.99,,,-99.99,,2013-04-18 08:52:00,
2013-04-18 04:02:00,38.0,38.0,-100.00,South,175,2.0,6.0,99,-99.99,,,-99.99,,2013-04-18 09:02:00,
2013-04-18 04:12:00,38.0,38.0,-100.00,South,175,2.0,6.0,99,-99.99,,,-99.99,,2013-04-18 09:12:00,
2013-04-18 04:20:00,38.0,38.0,-100.00,South,175,4.0,10.0,99,-99.99,,,-99.99,,2013-04-18 09:20:00,
2013-04-18 04:43:00,38.0,38.0,-100.00,South,175,4.0,10.0,99,-99.99,,,-99.99,,2013-04-18 09:43:00,
2013-04-18 04:53:00,38.0,38.0,-100.00,South,175,4.0,10.0,99,-99.99,,,-99.99,,2013-04-18 09:53:00,
2013-04-18 05:03:00,38.0,38.0,-100.00,South,175,4.0,10.0,99,-99.99,,,-99.99,,2013-04-18 10:03:00,
2013-04-18 05:12:00,38.0,38.0,-100.00,South,175,4.0,10.0,99,-99.99,,,-99.99,,2013-04-18 10:12:00,
2013-04-18 05:22:00,38.0,38.0,-100.00,South,175,6.0,8.0,99,-99.99,,,-99.99,,2013-04-18 10:22:00,
2013-04-18 05:42:00,38.0,38.0,-100.00,South,175,6.0,8.0,99,-99.99,,,-99.99,,2013-04-18 10:42:00,
2013-04-18 05:52:00,38.0,38.0,-100.00,South,175,6.0,8.0,99,-99.99,,,-99.99,,2013-04-18 10:52:00,
2013-04-18 06:02:00,38.0,38.0,-100.00,South,175,6.0,8.0,99,-99.99,,,-99.99,,2013-04-18 11:02:00,
2013-04-18 06:12:00,38.0,38.0,-100.00,South,175,6.0,8.0,99,-99.99,,,-99.99,,2013-04-18 11:12:00,
2013-04-18 06:42:00,38.0,37.0,-100.00,South,175,1.0,6.0,99,-99.99,,,-99.99,,2013-04-18 11:42:00,
2013-04-18 06:52:00,38.0,37.0,-100.00,South,175,1.0,6.0,99,-99.99,,,-99.99,,2013-04-18 11:52:00,
2013-04-18 07:02:00,38.0,37.0,-100.00,South,175,1.0,6.0,99,-99.99,,,-99.99,,2013-04-18 12:02:00,
2013-04-18 07:12:00,38.0,37.0,-100.00,South,175,1.0,6.0,99,-99.99,,,-99.99,,2013-04-18 12:12:00,
2013-04-18 07:42:00,37.0,37.0,-100.00,South,175,6.0,10.0,99,-99.99,,,-99.99,,2013-04-18 12:42:00,
2013-04-18 07:52:00,37.0,37.0,-100.00,South,175,6.0,10.0,99,-99.99,,,-99.99,,2013-04-18 12:52:00,
2013-04-18 08:02:00,37.0,37.0,-100.00,South,175,6.0,10.0,99,-99.99,,,-99.99,,2013-04-18 13:02:00,
2013-04-18 08:12:00,37.0,37.0,-100.00,South,175,6.0,10.0,99,-99.99,,,-99.99,,2013-04-18 13:12:00,
2013-04-18 08:43:00,37.0,37.0,-100.00,South,175,7.0,9.0,99,-99.99,,,-99.99,,2013-04-18 13:43:00,
2013-04-18 08:53:00,37.0,37.0,-100.00,South,175,7.0,9.0,99,-99.99,,,-99.99,,2013-04-18 13:53:00,
2013-04-18 09:02:00,37.0,37.0,-100.00,South,175,7.0,9.0,99,-99.99,,,-99.99,,2013-04-18 14:02:00,
2013-04-18 09:12:00,37.0,37.0,-100.00,South,175,7.0,9.0,99,-99.99,,,-99.99,,2013-04-18 14:12:00,
2013-04-18 09:20:00,37.0,37.0,-100.00,SSE,165,9.0,15.0,99,-99.99,,,-99.99,,2013-04-18 14:20:00,
2013-04-18 09:43:00,37.0,37.0,-100.00,SSE,165,9.0,15.0,99,-99.99,,,-99.99,,2013-04-18 14:43:00,
2013-04-18 09:52:00,37.0,37.0,-100.00,SSE,165,9.0,15.0,99,-99.99,,,-99.99,,2013-04-18 14:52:00,
2013-04-18 10:02:00,37.0,37.0,-100.00,SSE,165,9.0,15.0,99,-99.99,,,-99.99,,2013-04-18 15:02:00,
2013-04-18 10:12:00,37.0,37.0,-100.00,SSE,165,9.0,15.0,99,-99.99,,,-99.99,,2013-04-18 15:12:00,
2013-04-18 10:43:00,38.0,38.0,-100.00,SSE,165,2.0,7.0,99,-99.99,,,-99.99,,2013-04-18 15:43:00,
2013-04-18 10:53:00,38.0,38.0,-100.00,SSE,165,2.0,7.0,99,-99.99,,,-99.99,,2013-04-18 15:53:00,
2013-04-18 11:03:00,38.0,38.0,-100.00,SSE,165,2.0,7.0,99,-99.99,,,-99.99,,2013-04-18 16:03:00,
2013-04-18 11:13:00,38.0,38.0,-100.00,SSE,165,2.0,7.0,99,-99.99,,,-99.99,,2013-04-18 16:13:00,
2013-04-18 11:43:00,39.0,39.0,-100.00,SSE,165,1.0,7.0,99,-99.99,,,-99.99,,2013-04-18 16:43:00,
2013-04-18 11:53:00,39.0,39.0,-100.00,SSE,165,1.0,7.0,99,-99.99,,,-99.99,,2013-04-18 16:53:00,
2013-04-18 12:03:00,39.0,39.0,-100.00,SSE,165,1.0,7.0,99,-99.99,,,-99.99,,2013-04-18 17:03:00,
2013-04-18 12:12:00,39.0,39.0,-100.00,SSE,165,1.0,7.0,99,-99.99,,,-99.99,,2013-04-18 17:12:00,
2013-04-18 12:43:00,40.0,40.0,-100.00,SSE,165,2.0,7.0,99,-99.99,,,-99.99,,2013-04-18 17:43:00,
2013-04-18 12:52:00,40.0,40.0,-100.00,SSE,165,2.0,7.0,99,-99.99,,,-99.99,,2013-04-18 17:52:00,
2013-04-18 13:02:00,40.0,40.0,-100.00,SSE,165,2.0,7.0,99,-99.99,,,-99.99,,2013-04-18 18:02:00,
2013-04-18 13:12:00,40.0,40.0,-100.00,SSE,165,2.0,7.0,99,-99.99,,,-99.99,,2013-04-18 18:12:00,
2013-04-18 13:43:00,39.0,39.0,-100.00,SSE,165,4.0,9.0,99,-99.99,,,-99.99,,2013-04-18 18:43:00,
2013-04-18 13:52:00,39.0,39.0,-100.00,SSE,165,4.0,9.0,99,-99.99,,,-99.99,,2013-04-18 18:52:00,
2013-04-18 14:02:00,39.0,39.0,-100.00,SSE,165,4.0,9.0,99,-99.99,,,-99.99,,2013-04-18 19:02:00,
2013-04-18 14:12:00,39.0,39.0,-100.00,SSE,165,4.0,9.0,99,-99.99,,,-99.99,,2013-04-18 19:12:00,
2013-04-18 14:43:00,40.0,39.0,-100.00,SSE,165,7.0,12.0,99,-99.99,,,-99.99,,2013-04-18 19:43:00,
2013-04-18 14:53:00,40.0,39.0,-100.00,SSE,165,7.0,12.0,99,-99.99,,,-99.99,,2013-04-18 19:53:00,
2013-04-18 15:02:00,40.0,39.0,-100.00,SSE,165,7.0,12.0,99,-99.99,,,-99.99,,2013-04-18 20:02:00,
2013-04-18 15:12:00,40.0,39.0,-100.00,SSE,165,7.0,12.0,99,-99.99,,,-99.99,,2013-04-18 20:12:00,
2013-04-18 15:42:00,40.0,39.0,-100.00,SSE,165,9.0,15.0,99,-99.99,,,-99.99,,2013-04-18 20:42:00,
2013-04-18 15:52:00,40.0,39.0,-100.00,SSE,165,9.0,15.0,99,-99.99,,,-99.99,,2013-04-18 20:52:00,
2013-04-18 16:02:00,40.0,39.0,-100.00,SSE,165,9.0,15.0,99,-99.99,,,-99.99,,2013-04-18 21:02:00,
2013-04-18 16:12:00,40.0,39.0,-100.00,SSE,165,9.0,15.0,99,-99.99,,,-99.99,,2013-04-18 21:12:00,
2013-04-18 16:43:00,40.0,39.0,-100.00,SSE,165,9.0,15.0,99,-99.99,,,-99.99,,2013-04-18 21:43:00,
2013-04-18 16:53:00,40.0,39.0,-100.00,SSE,165,9.0,15.0,99,-99.99,,,-99.99,,2013-04-18 21:53:00,
2013-04-18 17:02:00,40.0,39.0,-100.00,SSE,165,9.0,15.0,99,-99.99,,,-99.99,,2013-04-18 22:02:00,
2013-04-18 17:13:00,40.0,39.0,-100.00,SSE,165,9.0,15.0,99,-99.99,,,-99.99,,2013-04-18 22:13:00,
2013-04-18 17:42:00,40.0,40.0,-100.00,SSE,165,8.0,15.0,99,-99.99,,,-99.99,,2013-04-18 22:42:00,
2013-04-18 17:52:00,40.0,40.0,-100.00,SSE,165,8.0,15.0,99,-99.99,,,-99.99,,2013-04-18 22:52:00,
2013-04-18 18:04:00,40.0,40.0,-100.00,SSE,165,8.0,15.0,99,-99.99,,,-99.99,,2013-04-18 23:04:00,
2013-04-18 18:11:00,40.0,40.0,-100.00,SSE,165,8.0,15.0,99,-99.99,,,-99.99,,2013-04-18 23:11:00,
2013-04-18 18:42:00,40.0,40.0,-100.00,SSE,165,6.0,11.0,99,-99.99,,,-99.99,,2013-04-18 23:42:00,
2013-04-18 18:52:00,40.0,40.0,-100.00,SSE,165,6.0,11.0,99,-99.99,,,-99.99,,2013-04-18 23:52:00,
2013-04-18 19:01:00,40.0,40.0,-100.00,SSE,165,6.0,11.0,99,-99.99,,,-99.99,,2013-04-19 00:01:00,
2013-04-18 19:12:00,40.0,40.0,-100.00,SSE,165,6.0,11.0,99,-99.99,,,-99.99,,2013-04-19 00:12:00,
2013-04-18 19:42:00,41.0,40.0,-100.00,SSE,165,4.0,8.0,99,-99.99,,,-99.99,,2013-04-19 00:42:00,
2013-04-18 19:52:00,41.0,40.0,-100.00,SSE,165,4.0,8.0,99,-99.99,,,-99.99,,2013-04-19 00:52:00,
2013-04-18 20:01:00,41.0,40.0,-100.00,SSE,165,4.0,8.0,99,-99.99,,,-99.99,,2013-04-19 01:01:00,
2013-04-18 20:11:00,41.0,40.0,-100.00,SSE,165,4.0,8.0,99,-99.99,,,-99.99,,2013-04-19 01:11:00,
2013-04-18 20:42:00,40.0,40.0,-100.00,SSE,165,4.0,7.0,99,-99.99,,,-99.99,,2013-04-19 01:42:00,
2013-04-18 20:52:00,40.0,40.0,-100.00,SSE,165,4.0,7.0,99,-99.99,,,-99.99,,2013-04-19 01:52:00,
2013-04-18 21:02:00,40.0,40.0,-100.00,SSE,165,4.0,7.0,99,-99.99,,,-99.99,,2013-04-19 02:02:00,
2013-04-18 21:11:00,40.0,40.0,-100.00,SSE,165,4.0,7.0,99,-99.99,,,-99.99,,2013-04-19 02:11:00,
2013-04-18 21:42:00,38.0,38.0,-100.00,SSE,165,6.0,12.0,99,-99.99,,,-99.99,,2013-04-19 02:42:00,
2013-04-18 21:52:00,38.0,38.0,-100.00,SSE,165,6.0,12.0,99,-99.99,,,-99.99,,2013-04-19 02:52:00,
2013-04-18 22:01:00,38.0,38.0,-100.00,SSE,165,6.0,12.0,99,-99.99,,,-99.99,,2013-04-19 03:01:00,
2013-04-18 22:11:00,38.0,38.0,-100.00,SSE,165,6.0,12.0,99,-99.99,,,-99.99,,2013-04-19 03:11:00,
2013-04-18 22:43:00,37.0,37.0,-100.00,WNW,290,8.0,15.0,99,-99.99,,,-99.99,,2013-04-19 03:43:00,
2013-04-18 22:53:00,37.0,37.0,-100.00,WNW,290,8.0,15.0,99,-99.99,,,-99.99,,2013-04-19 03:53:00,
2013-04-18 23:03:00,37.0,37.0,-100.00,WNW,290,8.0,15.0,99,-99.99,,,-99.99,,2013-04-19 04:03:00,
2013-04-18 23:13:00,37.0,37.0,-100.00,WNW,290,8.0,15.0,99,-99.99,,,-99.99,,2013-04-19 04:13:00,
2013-04-18 23:43:00,36.0,35.0,-100.00,WNW,285,11.0,19.0,99,-99.99,,,-99.99,,2013-04-19 04:43:00,
2013-04-18 23:52:00,36.0,35.0,-100.00,WNW,285,11.0,19.0,99,-99.99,,,-99.99,,2013-04-19 04:52:00,